createdAt,value
2018-06-25T00:02:17.597Z,98734.42
2018-06-25T00:04:46.031Z,98734.70
2018-06-25T00:07:14.419Z,98738.70
2018-06-25T00:09:42.841Z,98751.09
2018-06-25T00:12:11.259Z,98742.13
2018-06-25T00:14:39.631Z,98736.61
2018-06-25T00:17:07.973Z,98728.92
2018-06-25T00:19:36.330Z,98737.59
2018-06-25T00:22:04.744Z,98729.58
2018-06-25T00:24:33.173Z,98736.06
2018-06-25T00:27:01.511Z,98738.66
2018-06-25T00:29:29.836Z,98732.02
2018-06-25T00:31:58.134Z,98730.50
2018-06-25T00:34:26.451Z,98734.03
2018-06-25T00:36:54.836Z,98725.24
2018-06-25T00:39:23.218Z,98727.36
2018-06-25T00:41:51.574Z,98720.45
2018-06-25T00:44:19.997Z,98725.80
2018-06-25T00:46:48.370Z,98723.64
2018-06-25T00:49:16.846Z,98728.91
2018-06-25T00:51:45.200Z,98727.13
2018-06-25T00:54:13.617Z,98727.52
2018-06-25T00:56:41.928Z,98732.67
2018-06-25T00:59:21.466Z,98731.54
2018-06-25T01:01:49.930Z,98731.73
2018-06-25T01:04:18.264Z,98728.73
2018-06-25T01:06:46.610Z,98727.30
2018-06-25T01:09:14.956Z,98723.86
2018-06-25T01:11:43.289Z,98728.86
2018-06-25T01:14:11.791Z,98728.11
2018-06-25T01:16:40.180Z,98725.69
2018-06-25T01:19:09.112Z,98730.73
2018-06-25T01:21:37.965Z,98729.91
2018-06-25T01:24:06.934Z,98727.55
2018-06-25T01:26:35.320Z,98727.83
2018-06-25T01:29:03.688Z,98725.06
2018-06-25T01:31:31.996Z,98723.19
2018-06-25T01:34:00.340Z,98729.51
2018-06-25T01:36:28.684Z,98733.06
2018-06-25T01:38:57.045Z,98727.87
2018-06-25T01:41:25.401Z,98732.52
2018-06-25T01:43:53.905Z,98728.30
2018-06-25T01:46:22.299Z,98730.06
2018-06-25T01:48:50.639Z,98722.21
2018-06-25T01:51:19.001Z,98726.22
2018-06-25T01:53:47.508Z,98724.27
2018-06-25T01:56:15.871Z,98730.63
2018-06-25T01:58:44.326Z,98731.70
2018-06-25T02:01:12.836Z,98727.05
2018-06-25T02:03:41.250Z,98729.27
2018-06-25T02:06:09.652Z,98731.20
2018-06-25T02:08:38.003Z,98730.06
2018-06-25T02:11:06.452Z,98730.42
2018-06-25T02:13:34.811Z,98732.62
2018-06-25T02:16:03.226Z,98726.74
2018-06-25T02:18:31.600Z,98730.64
2018-06-25T02:20:59.926Z,98732.28
2018-06-25T02:23:28.571Z,98735.39
2018-06-25T02:25:56.998Z,98738.53
2018-06-25T02:28:25.367Z,98745.63
2018-06-25T02:30:53.731Z,98745.27
2018-06-25T02:33:22.031Z,98739.20
2018-06-25T02:35:50.498Z,98740.50
2018-06-25T02:38:18.834Z,98745.02
2018-06-25T02:40:47.284Z,98742.34
2018-06-25T02:43:15.608Z,98731.28
2018-06-25T02:45:44.003Z,98741.70
2018-06-25T02:48:12.426Z,98733.23
2018-06-25T02:50:40.809Z,98734.82
2018-06-25T02:53:09.330Z,98732.56
2018-06-25T02:55:37.963Z,98726.92
2018-06-25T02:58:06.481Z,98730.20
2018-06-25T03:00:34.982Z,98733.00
2018-06-25T03:03:03.335Z,98728.09
2018-06-25T03:05:31.734Z,98731.16
2018-06-25T03:08:00.278Z,98722.83
2018-06-25T03:10:28.628Z,98735.28
2018-06-25T03:12:56.951Z,98740.52
2018-06-25T03:15:25.238Z,98737.47
2018-06-25T03:17:53.800Z,98736.58
2018-06-25T03:20:22.046Z,98736.66
2018-06-25T03:22:50.348Z,98746.88
2018-06-25T03:25:18.657Z,98751.52
2018-06-25T03:27:46.940Z,98753.82
2018-06-25T03:30:15.500Z,98756.95
2018-06-25T03:32:43.862Z,98759.02
2018-06-25T03:35:12.340Z,98760.56
2018-06-25T03:37:40.906Z,98763.19
2018-06-25T03:40:09.228Z,98766.66
2018-06-25T03:42:37.573Z,98767.27
2018-06-25T03:45:06.007Z,98770.91
2018-06-25T03:47:34.527Z,98769.66
2018-06-25T03:50:02.985Z,98767.56
2018-06-25T03:52:31.449Z,98764.30
2018-06-25T03:54:59.806Z,98764.16
2018-06-25T03:57:28.265Z,98768.69
2018-06-25T03:59:56.658Z,98770.09
2018-06-25T04:02:25.048Z,98770.77
2018-06-25T04:04:53.536Z,98774.64
2018-06-25T04:07:22.019Z,98782.34
2018-06-25T04:09:50.424Z,98779.65
2018-06-25T04:12:18.795Z,98786.95
2018-06-25T04:14:47.109Z,98775.98
2018-06-25T04:17:15.490Z,98780.30
2018-06-25T04:19:43.942Z,98781.44
2018-06-25T04:22:12.349Z,98776.95
2018-06-25T04:24:40.757Z,98786.22
2018-06-25T04:27:09.169Z,98785.42
2018-06-25T04:29:37.525Z,98794.11
2018-06-25T04:32:05.991Z,98793.50
2018-06-25T04:34:34.390Z,98792.69
2018-06-25T04:37:02.792Z,98795.25
2018-06-25T04:39:31.123Z,98794.56
2018-06-25T04:42:00.289Z,98799.44
2018-06-25T04:44:28.690Z,98803.61
2018-06-25T04:46:57.145Z,98804.57
2018-06-25T04:49:25.657Z,98803.16
2018-06-25T04:51:57.711Z,98804.74
2018-06-25T04:54:27.131Z,98805.00
2018-06-25T04:56:55.749Z,98812.27
2018-06-25T04:59:24.197Z,98811.55
2018-06-25T05:01:52.731Z,98811.17
2018-06-25T05:04:21.150Z,98810.18
2018-06-25T05:06:49.642Z,98817.81
2018-06-25T05:09:18.127Z,98814.48
2018-06-25T05:11:46.575Z,98819.06
2018-06-25T05:14:15.016Z,98826.23
2018-06-25T05:16:43.386Z,98818.67
2018-06-25T05:19:11.694Z,98817.12
2018-06-25T05:21:40.017Z,98823.16
2018-06-25T05:24:08.342Z,98825.59
2018-06-25T05:26:36.713Z,98827.67
2018-06-25T05:29:05.042Z,98832.14
2018-06-25T05:31:33.452Z,98826.20
2018-06-25T05:34:01.773Z,98832.41
2018-06-25T05:36:30.185Z,98829.45
2018-06-25T05:38:58.573Z,98832.40
2018-06-25T05:41:26.935Z,98835.48
2018-06-25T05:43:55.434Z,98839.38
2018-06-25T05:46:23.849Z,98845.62
2018-06-25T05:48:52.173Z,98842.81
2018-06-25T05:51:20.545Z,98840.13
2018-06-25T05:53:48.980Z,98847.38
2018-06-25T05:56:17.401Z,98846.39
2018-06-25T05:58:45.760Z,98849.72
2018-06-25T06:01:14.177Z,98854.00
2018-06-25T06:03:42.552Z,98859.08
2018-06-25T06:06:10.947Z,98853.13
2018-06-25T06:08:39.366Z,98866.20
2018-06-25T06:11:07.801Z,98857.91
2018-06-25T06:13:36.182Z,98863.08
2018-06-25T06:16:04.647Z,98864.73
2018-06-25T06:18:33.041Z,98871.66
2018-06-25T06:21:01.778Z,98867.30
2018-06-25T06:23:30.169Z,98872.40
2018-06-25T06:25:58.529Z,98873.02
2018-06-25T06:28:26.858Z,98875.66
2018-06-25T06:30:55.353Z,98871.84
2018-06-25T06:33:23.812Z,98870.41
2018-06-25T06:35:52.190Z,98876.75
2018-06-25T06:38:20.600Z,98878.19
2018-06-25T06:40:48.911Z,98880.50
2018-06-25T06:43:17.463Z,98875.45
2018-06-25T06:45:47.020Z,98883.86
2018-06-25T06:48:15.397Z,98886.66
2018-06-25T06:50:43.781Z,98891.81
2018-06-25T06:53:12.238Z,98887.03
2018-06-25T06:55:40.604Z,98886.33
2018-06-25T06:58:08.933Z,98890.84
2018-06-25T07:00:37.309Z,98893.00
2018-06-25T07:03:05.769Z,98886.91
2018-06-25T07:05:34.144Z,98890.50
2018-06-25T07:08:02.478Z,98887.03
2018-06-25T07:10:30.858Z,98892.03
2018-06-25T07:12:59.223Z,98893.58
2018-06-25T07:15:27.655Z,98887.69
2018-06-25T07:17:56.020Z,98897.44
2018-06-25T07:20:24.338Z,98902.55
2018-06-25T07:22:53.225Z,98896.30
2018-06-25T07:25:22.083Z,98900.33
2018-06-25T07:27:50.873Z,98899.86
2018-06-25T07:30:19.767Z,98894.88
2018-06-25T07:32:48.608Z,98906.62
2018-06-25T07:35:17.449Z,98902.17
2018-06-25T07:37:46.343Z,98908.66
2018-06-25T07:40:15.126Z,98907.35
2018-06-25T07:42:43.930Z,98903.82
2018-06-25T07:45:12.813Z,98902.48
2018-06-25T07:47:41.581Z,98898.05
2018-06-25T07:50:10.504Z,98899.80
2018-06-25T07:52:39.179Z,98896.02
2018-06-25T07:55:07.968Z,98898.09
2018-06-25T07:57:36.914Z,98896.84
2018-06-25T08:00:06.135Z,98898.78
2018-06-25T08:02:34.832Z,98907.53
2018-06-25T08:05:03.711Z,98905.23
2018-06-25T08:07:32.557Z,98902.69
2018-06-25T08:10:01.508Z,98901.48
2018-06-25T08:12:30.187Z,98900.78
2018-06-25T08:14:58.927Z,98895.97
2018-06-25T08:17:27.671Z,98895.91
2018-06-25T08:19:56.432Z,98903.48
2018-06-25T08:22:25.167Z,98907.20
2018-06-25T08:24:53.984Z,98907.82
2018-06-25T08:27:22.799Z,98917.87
2018-06-25T08:29:51.683Z,98912.51
2018-06-25T08:32:20.421Z,98914.82
2018-06-25T08:34:49.142Z,98919.56
2018-06-25T08:37:18.089Z,98913.55
2018-06-25T08:39:46.847Z,98924.38
2018-06-25T08:42:15.662Z,98918.73
2018-06-25T08:44:44.378Z,98924.72
2018-06-25T08:47:13.220Z,98928.80
2018-06-25T08:49:42.052Z,98929.45
2018-06-25T08:52:10.824Z,98931.15
2018-06-25T08:54:39.594Z,98930.77
2018-06-25T08:57:08.286Z,98928.31
2018-06-25T08:59:36.987Z,98931.18
2018-06-25T09:02:05.847Z,98931.98
2018-06-25T09:04:34.551Z,98927.25
2018-06-25T09:07:03.280Z,98926.33
2018-06-25T09:09:32.135Z,98930.22
2018-06-25T09:12:00.898Z,98934.26
2018-06-25T09:14:29.675Z,98932.63
2018-06-25T09:16:58.606Z,98927.81
2018-06-25T09:19:27.409Z,98927.98
2018-06-25T09:21:56.208Z,98926.33
2018-06-25T09:24:24.938Z,98930.55
2018-06-25T09:26:53.616Z,98932.66
2018-06-25T09:29:22.331Z,98928.55
2018-06-25T09:31:51.046Z,98929.56
2018-06-25T09:34:50.143Z,98931.36
2018-06-25T09:37:19.439Z,98934.92
2018-06-25T09:39:48.269Z,98939.75
2018-06-25T09:42:17.023Z,98932.02
2018-06-25T09:44:45.767Z,98931.14
2018-06-25T09:47:14.480Z,98936.07
2018-06-25T09:49:43.254Z,98935.36
2018-06-25T09:52:12.012Z,98937.62
2018-06-25T09:54:40.932Z,98932.61
2018-06-25T09:57:09.686Z,98936.45
2018-06-25T09:59:38.310Z,98932.09
2018-06-25T10:02:07.033Z,98931.46
2018-06-25T10:04:35.736Z,98938.50
2018-06-25T10:07:04.484Z,98934.50
2018-06-25T10:09:33.177Z,98931.43
2018-06-25T10:12:01.933Z,98935.30
2018-06-25T10:14:30.712Z,98943.13
2018-06-25T10:16:59.502Z,98944.03
2018-06-25T10:19:28.306Z,98943.36
2018-06-25T10:21:56.993Z,98938.30
2018-06-25T10:24:28.650Z,98936.86
2018-06-25T10:26:57.542Z,98931.91
2018-06-25T10:29:26.217Z,98930.20
2018-06-25T10:31:54.997Z,98926.83
2018-06-25T10:34:23.683Z,98926.83
2018-06-25T10:36:52.545Z,98933.52
2018-06-25T10:39:21.189Z,98938.06
2018-06-25T10:41:49.871Z,98937.59
2018-06-25T10:44:19.773Z,98941.70
2018-06-25T10:46:48.495Z,98935.39
2018-06-25T10:49:17.104Z,98941.03
2018-06-25T10:51:45.943Z,98938.58
2018-06-25T10:54:14.787Z,98934.91
2018-06-25T10:56:43.483Z,98937.81
2018-06-25T10:59:12.265Z,98941.33
2018-06-25T11:01:42.085Z,98938.77
2018-06-25T11:04:10.744Z,98935.91
2018-06-25T11:06:39.693Z,98929.58
2018-06-25T11:09:10.308Z,98930.89
2018-06-25T11:11:38.958Z,98921.74
2018-06-25T11:14:07.729Z,98923.91
2018-06-25T11:16:38.503Z,98929.76
2018-06-25T11:19:07.185Z,98931.92
2018-06-25T11:21:35.896Z,98927.31
2018-06-25T11:24:04.511Z,98924.30
2018-06-25T11:26:33.212Z,98928.39
2018-06-25T11:29:01.979Z,98921.92
2018-06-25T11:31:30.705Z,98920.70
2018-06-25T11:33:59.593Z,98911.15
2018-06-25T11:36:28.420Z,98915.16
2018-06-25T11:38:57.328Z,98912.55
2018-06-25T11:41:26.127Z,98924.30
2018-06-25T11:43:54.847Z,98917.59
2018-06-25T11:46:23.589Z,98915.47
2018-06-25T11:48:52.269Z,98914.14
2018-06-25T11:51:21.447Z,98910.09
2018-06-25T11:53:50.177Z,98913.95
2018-06-25T11:56:18.792Z,98909.14
2018-06-25T11:58:47.718Z,98911.25
2018-06-25T12:01:16.463Z,98907.89
2018-06-25T12:03:45.171Z,98898.92
2018-06-25T12:06:13.907Z,98900.02
2018-06-25T12:08:42.700Z,98893.16
2018-06-25T12:11:11.435Z,98894.28
2018-06-25T12:13:40.181Z,98898.35
2018-06-25T12:16:08.912Z,98897.98
2018-06-25T12:18:37.650Z,98906.64
2018-06-25T12:21:06.358Z,98900.81
2018-06-25T12:23:34.960Z,98902.22
2018-06-25T12:26:03.773Z,98901.57
2018-06-25T12:28:32.520Z,98908.08
2018-06-25T12:31:01.183Z,98897.77
2018-06-25T12:33:29.894Z,98900.44
2018-06-25T12:35:58.821Z,98905.47
2018-06-25T12:38:27.451Z,98892.55
2018-06-25T12:40:56.230Z,98894.82
2018-06-25T12:43:25.058Z,98902.02
2018-06-25T12:45:53.949Z,98905.98
2018-06-25T12:48:23.773Z,98908.94
2018-06-25T12:50:52.629Z,98918.70
2018-06-25T12:53:21.244Z,98912.30
2018-06-25T12:55:49.991Z,98912.76
2018-06-25T12:58:18.612Z,98913.94
2018-06-25T13:00:47.345Z,98914.62
2018-06-25T13:03:16.160Z,98918.54
2018-06-25T13:05:44.956Z,98904.13
2018-06-25T13:08:13.675Z,98902.11
2018-06-25T13:10:42.410Z,98909.17
2018-06-25T13:13:11.123Z,98900.99
2018-06-25T13:15:39.783Z,98902.79
2018-06-25T13:18:08.537Z,98900.45
2018-06-25T13:20:37.325Z,98902.73
2018-06-25T13:23:05.971Z,98905.07
2018-06-25T13:25:34.745Z,98902.84
2018-06-25T13:28:03.506Z,98907.45
2018-06-25T13:30:32.289Z,98905.27
2018-06-25T13:33:01.084Z,98911.11
2018-06-25T13:38:51.907Z,98906.95
2018-06-25T13:41:20.701Z,98907.20
2018-06-25T13:43:49.432Z,98907.67
2018-06-25T13:46:18.077Z,98897.08
2018-06-25T13:48:46.947Z,98903.60
2018-06-25T13:51:16.363Z,98897.92
2018-06-25T13:53:45.289Z,98899.71
2018-06-25T13:56:14.154Z,98901.77
2018-06-25T13:58:42.887Z,98902.42
2018-06-25T14:01:11.760Z,98895.59
2018-06-25T14:03:40.702Z,98894.16
2018-06-25T14:06:09.530Z,98891.86
2018-06-25T14:08:38.307Z,98892.83
2018-06-25T14:11:07.274Z,98887.54
2018-06-25T14:13:36.130Z,98883.04
2018-06-25T14:16:04.867Z,98885.20
2018-06-25T14:18:33.805Z,98881.61
2018-06-25T14:21:02.592Z,98886.45
2018-06-25T14:23:36.989Z,98884.93
2018-06-25T14:26:07.205Z,98879.30
2018-06-25T14:28:38.879Z,98879.55
2018-06-25T14:31:12.980Z,98873.52
2018-06-25T14:33:43.248Z,98888.91
2018-06-25T14:36:12.087Z,98879.13
2018-06-25T14:38:40.847Z,98870.95
2018-06-25T14:41:09.783Z,98877.41
2018-06-25T14:43:38.645Z,98879.07
2018-06-25T14:46:07.573Z,98874.51
2018-06-25T14:48:36.368Z,98876.48
2018-06-25T14:51:05.127Z,98873.05
2018-06-25T14:53:33.930Z,98873.05
2018-06-25T14:56:02.694Z,98874.73
2018-06-25T14:58:31.411Z,98875.88
2018-06-25T15:01:00.316Z,98873.77
2018-06-25T15:03:29.062Z,98873.33
2018-06-25T15:05:57.881Z,98868.48
2018-06-25T15:08:26.584Z,98861.05
2018-06-25T15:10:55.478Z,98870.02
2018-06-25T15:13:25.347Z,98860.53
2018-06-25T15:15:53.996Z,98858.59
2018-06-25T15:18:22.766Z,98869.00
2018-06-25T15:20:51.483Z,98861.50
2018-06-25T15:23:20.489Z,98862.87
2018-06-25T15:25:49.594Z,98856.80
2018-06-25T15:28:19.357Z,98858.72
2018-06-25T15:30:50.186Z,98858.33
2018-06-25T15:33:19.259Z,98855.51
2018-06-25T15:35:48.063Z,98861.95
2018-06-25T15:38:16.890Z,98861.73
2018-06-25T15:40:45.701Z,98856.45
2018-06-25T15:43:14.536Z,98853.19
2018-06-25T15:45:43.493Z,98854.17
2018-06-25T15:48:12.383Z,98861.86
2018-06-25T15:50:41.338Z,98849.15
2018-06-25T15:53:10.145Z,98856.29
2018-06-25T15:55:39.056Z,98845.31
2018-06-25T15:58:08.005Z,98850.48
2018-06-25T16:00:36.993Z,98852.83
2018-06-25T16:03:05.802Z,98853.62
2018-06-25T16:05:34.581Z,98854.99
2018-06-25T16:08:03.543Z,98843.95
2018-06-25T16:10:32.592Z,98843.16
2018-06-25T16:13:03.439Z,98845.19
2018-06-25T16:15:32.206Z,98839.81
2018-06-25T16:18:01.044Z,98840.61
2018-06-25T16:20:29.858Z,98838.66
2018-06-25T16:22:58.679Z,98835.11
2018-06-25T16:25:27.506Z,98832.76
2018-06-25T16:27:56.334Z,98836.55
2018-06-25T16:30:25.142Z,98828.41
2018-06-25T16:32:53.896Z,98828.66
2018-06-25T16:35:22.760Z,98827.78
2018-06-25T16:37:51.518Z,98829.02
2018-06-25T16:40:20.363Z,98837.64
2018-06-25T16:42:49.188Z,98831.31
2018-06-25T16:45:17.925Z,98836.44
2018-06-25T16:47:46.727Z,98827.76
2018-06-25T16:50:15.560Z,98835.36
2018-06-25T16:52:44.322Z,98830.31
2018-06-25T16:55:13.132Z,98830.31
2018-06-25T16:57:42.187Z,98834.02
2018-06-25T17:00:11.032Z,98834.20
2018-06-25T17:02:39.932Z,98835.14
2018-06-25T17:05:08.737Z,98833.70
2018-06-25T17:07:37.692Z,98832.36
2018-06-25T17:10:06.605Z,98832.34
2018-06-25T17:12:35.447Z,98830.50
2018-06-25T17:15:04.483Z,98834.59
2018-06-25T17:17:34.481Z,98838.00
2018-06-25T17:20:03.411Z,98836.22
2018-06-25T17:22:32.524Z,98842.48
2018-06-25T17:25:01.376Z,98841.72
2018-06-25T17:27:30.198Z,98837.48
2018-06-25T17:29:59.532Z,98842.30
2018-06-25T17:32:28.289Z,98850.69
2018-06-25T17:34:57.707Z,98847.25
2018-06-25T17:37:26.779Z,98851.70
2018-06-25T17:39:55.838Z,98852.73
2018-06-25T17:42:24.643Z,98853.65
2018-06-25T17:44:53.572Z,98849.77
2018-06-25T17:47:22.456Z,98846.05
2018-06-25T17:49:51.161Z,98854.12
2018-06-25T17:52:19.823Z,98854.01
2018-06-25T17:54:48.777Z,98854.70
2018-06-25T17:57:17.617Z,98851.64
2018-06-25T17:59:46.439Z,98853.95
2018-06-25T18:02:15.470Z,98852.20
2018-06-25T18:04:44.263Z,98854.45
2018-06-25T18:07:13.109Z,98852.48
2018-06-25T18:09:41.945Z,98848.25
2018-06-25T18:12:10.614Z,98853.11
2018-06-25T18:14:39.451Z,98851.09
2018-06-25T18:17:08.489Z,98870.95
2018-06-25T18:19:37.448Z,98866.23
2018-06-25T18:22:06.148Z,98866.39
2018-06-25T18:24:34.994Z,98863.50
2018-06-25T18:27:03.820Z,98860.13
2018-06-25T18:29:32.663Z,98863.25
2018-06-25T18:32:01.626Z,98862.09
2018-06-25T18:34:30.413Z,98861.44
2018-06-25T18:36:59.278Z,98869.31
2018-06-25T18:39:28.336Z,98865.37
2018-06-25T18:41:57.220Z,98867.70
2018-06-25T18:44:26.085Z,98871.22
2018-06-25T18:46:55.959Z,98872.22
2018-06-25T18:49:24.657Z,98872.31
2018-06-25T18:51:53.575Z,98877.22
2018-06-25T18:54:22.435Z,98874.30
2018-06-25T18:56:51.204Z,98872.49
2018-06-25T18:59:20.115Z,98868.18
2018-06-25T19:01:49.025Z,98867.93
2018-06-25T19:04:18.058Z,98872.70
2018-06-25T19:06:46.869Z,98872.18
2018-06-25T19:09:17.171Z,98873.25
2018-06-25T19:11:46.029Z,98883.18
2018-06-25T19:14:21.004Z,98886.88
2018-06-25T19:17:23.309Z,98890.54
2018-06-25T19:20:04.470Z,98888.09
2018-06-25T19:23:03.901Z,98895.08
2018-06-25T19:25:51.611Z,98897.89
2018-06-25T19:28:32.652Z,98895.55
2018-06-25T19:33:56.887Z,98907.83
2018-06-25T19:36:39.061Z,98903.97
2018-06-25T19:39:27.237Z,98908.06
2018-06-25T19:44:57.503Z,98921.64
2018-06-25T19:50:41.647Z,98922.72
2018-06-25T19:53:21.600Z,98919.23
2018-06-25T19:56:01.948Z,98927.31
2018-06-25T19:58:46.983Z,98932.76
2018-06-25T20:01:31.102Z,98932.14
2018-06-25T20:07:05.264Z,98934.71
2018-06-25T20:09:46.143Z,98944.41
2018-06-25T20:12:28.290Z,98939.05
2018-06-25T20:15:08.239Z,98936.23
2018-06-25T20:17:43.867Z,98944.80
2018-06-25T20:20:20.019Z,98938.58
2018-06-25T20:23:06.480Z,98947.34
2018-06-25T20:25:42.341Z,98949.28
2018-06-25T20:28:15.590Z,98947.50
2018-06-25T20:30:55.235Z,98953.28
2018-06-25T20:33:29.852Z,98952.52
2018-06-25T20:36:08.409Z,98955.25
2018-06-25T20:38:42.964Z,98959.31
2018-06-25T20:41:19.421Z,98953.76
2018-06-25T20:43:56.344Z,98953.85
2018-06-25T20:46:31.552Z,98955.22
2018-06-25T20:49:07.778Z,98958.27
2018-06-25T20:51:43.547Z,98953.41
2018-06-25T20:54:17.868Z,98951.83
2018-06-25T20:56:54.460Z,98949.05
2018-06-25T21:02:13.329Z,98962.13
2018-06-25T21:04:50.451Z,98958.36
2018-06-25T21:07:23.480Z,98969.48
2018-06-25T21:09:57.904Z,98970.02
2018-06-25T21:12:33.255Z,98962.23
2018-06-25T21:15:06.586Z,98966.28
2018-06-25T21:17:38.311Z,98966.42
2018-06-25T21:20:15.582Z,98961.88
2018-06-25T21:22:45.868Z,98958.35
2018-06-25T21:25:16.049Z,98958.24
2018-06-25T21:27:47.288Z,98968.02
2018-06-25T21:30:16.287Z,98966.66
2018-06-25T21:32:45.165Z,98963.20
2018-06-25T21:35:14.988Z,98961.40
2018-06-25T21:37:44.032Z,98963.31
2018-06-25T21:40:15.326Z,98965.66
2018-06-25T21:42:44.059Z,98966.38
2018-06-25T21:45:12.889Z,98964.19
2018-06-25T21:47:44.216Z,98964.03
2018-06-25T21:50:15.460Z,98968.61
2018-06-25T21:52:45.596Z,98961.31
2018-06-25T21:55:14.335Z,98967.54
2018-06-25T21:57:43.192Z,98968.55
2018-06-25T22:00:13.414Z,98972.34
2018-06-25T22:02:42.429Z,98968.30
2018-06-25T22:05:11.277Z,98973.64
2018-06-25T22:07:39.910Z,98972.10
2018-06-25T22:10:08.882Z,98972.69
2018-06-25T22:12:37.608Z,98970.61
2018-06-25T22:15:06.970Z,98977.70
2018-06-25T22:17:35.708Z,98972.33
2018-06-25T22:20:04.881Z,98973.16
2018-06-25T22:22:33.770Z,98983.02
2018-06-25T22:25:02.647Z,98979.61
2018-06-25T22:27:31.865Z,98974.20
2018-06-25T22:30:01.158Z,98978.17
2018-06-25T22:32:30.011Z,98984.50
2018-06-25T22:34:58.840Z,98984.09
2018-06-25T22:37:27.494Z,98981.73
2018-06-25T22:39:56.754Z,98984.20
2018-06-25T22:42:27.129Z,98983.80
2018-06-25T22:44:55.973Z,98979.34
2018-06-25T22:47:24.755Z,98989.19
2018-06-25T22:49:53.567Z,98979.22
2018-06-25T22:52:22.295Z,98976.67
2018-06-25T22:54:51.052Z,98980.45
2018-06-25T22:57:19.724Z,98978.16
2018-06-25T22:59:48.503Z,98988.85
2018-06-25T23:02:17.201Z,98987.75
2018-06-25T23:04:45.875Z,98980.42
2018-06-25T23:07:14.639Z,98982.13
2018-06-25T23:09:43.300Z,98988.83
2018-06-25T23:12:12.084Z,98974.55
2018-06-25T23:14:40.722Z,98975.02
2018-06-25T23:17:09.345Z,98978.99
2018-06-25T23:19:38.106Z,98975.58
2018-06-25T23:22:07.057Z,98974.89
2018-06-25T23:24:35.793Z,98979.83
2018-06-25T23:27:04.533Z,98975.09
2018-06-25T23:29:33.169Z,98977.94
2018-06-25T23:32:01.784Z,98983.78
2018-06-25T23:34:30.490Z,98982.59
2018-06-25T23:36:59.209Z,98983.55
2018-06-25T23:39:27.882Z,98983.47
2018-06-25T23:41:56.557Z,98989.06
2018-06-25T23:44:25.221Z,98992.66
2018-06-25T23:46:53.884Z,98985.97
2018-06-25T23:49:22.597Z,98988.91
2018-06-25T23:51:51.313Z,98985.02
2018-06-25T23:54:20.198Z,98988.08
2018-06-25T23:56:48.912Z,98989.22
2018-06-25T23:59:17.796Z,98990.42
